Time;durP1;ratioP1;P1;durP2;ratioP2;P2;SDS_P1;SDS_P2;PMS_P1;PMS_P2;Temp;Humidity;BMP_temperature;BMP_pressure;BME280_temperature;BME280_humidity;BME280_pressure;Samples;Min_cycle;Max_cycle;Signal;HPM_P1;HPM_P2
2022/07/01 00:02:24;;;;;;;1.50;1.50;;;13.60;99.90;14.00;101355.00;;;;5071477;28;20706;-67
2022/07/01 00:05:08;;;;;;;3.13;3.00;;;13.60;99.90;13.70;101339.00;;;;5071412;28;20204;-67
2022/07/01 00:08:09;;;;;;;2.00;2.00;;;13.50;99.90;13.90;101339.00;;;;5071079;28;20702;-68
2022/07/01 00:10:53;;;;;;;1.80;1.80;;;13.50;99.90;13.80;101350.00;;;;5070966;28;20185;-67
2022/07/01 00:13:36;;;;;;;2.23;2.13;;;13.50;99.90;13.70;101346.00;;;;5070637;28;20208;-67
2022/07/01 00:16:38;;;;;;;1.80;1.80;;;13.40;99.90;13.80;101339.00;;;;5071241;28;20187;-68
2022/07/01 00:19:28;;;;;;;1.70;1.70;;;13.50;99.90;13.90;101335.00;;;;5055988;28;20174;-68
2022/07/01 00:22:12;;;;;;;1.73;1.73;;;13.50;99.90;13.90;101324.00;;;;5070702;28;20632;-68
2022/07/01 00:24:58;;;;;;;1.90;1.90;;;13.50;99.90;13.70;101317.00;;;;5070943;28;20183;-68
2022/07/01 00:27:45;;;;;;;2.30;2.20;;;13.40;99.90;13.80;101322.00;;;;5070364;28;20711;-67
2022/07/01 00:30:30;;;;;;;1.70;1.70;;;13.40;99.90;13.80;101333.00;;;;5070863;28;20199;-68
2022/07/01 00:33:14;;;;;;;1.70;1.70;;;13.40;99.90;13.90;101328.00;;;;5070677;28;20267;-68
2022/07/01 00:36:00;;;;;;;1.90;1.90;;;13.50;99.90;14.40;101304.00;;;;5070602;28;20531;-68
2022/07/01 00:38:44;;;;;;;1.80;1.80;;;13.70;99.90;14.70;101311.00;;;;5055107;28;20695;-68
2022/07/01 00:41:27;;;;;;;2.40;2.40;;;13.90;99.90;14.50;101314.00;;;;5070427;28;20180;-68
2022/07/01 00:44:20;;;;;;;2.10;2.10;;;14.00;99.90;14.50;101320.00;;;;5070508;28;20192;-68
2022/07/01 00:47:14;;;;;;;2.50;2.40;;;13.90;99.90;14.40;101316.00;;;;5070299;28;20233;-68
2022/07/01 00:50:03;;;;;;;2.20;2.20;;;13.90;99.90;14.40;101323.00;;;;5053937;28;20192;-68
2022/07/01 00:52:56;;;;;;;2.40;2.37;;;13.90;99.90;15.00;101324.00;;;;5070228;28;20262;-68
2022/07/01 00:55:43;;;;;;;2.37;2.37;;;14.10;99.90;14.40;101293.00;;;;5069244;28;20534;-68
2022/07/01 00:58:29;;;;;;;2.40;2.40;;;14.00;99.90;14.70;101332.00;;;;5070150;28;20558;-68
2022/07/01 01:01:13;;;;;;;2.40;2.40;;;14.10;99.90;14.70;101304.00;;;;5070230;28;20184;-68
2022/07/01 01:03:57;;;;;;;3.83;3.63;;;14.10;99.90;14.40;101339.00;;;;5069942;28;20316;-68
2022/07/01 01:06:42;;;;;;;2.30;2.30;;;13.90;99.90;14.70;101340.00;;;;5053982;28;20217;-68
2022/07/01 01:09:31;;;;;;;2.30;2.30;;;14.00;99.90;14.70;101315.00;;;;5069803;28;20185;-68
2022/07/01 01:12:17;;;;;;;2.00;2.00;;;14.00;99.90;14.40;101347.00;;;;5069519;28;20202;-67
2022/07/01 01:15:19;;;;;;;2.40;2.40;;;13.90;99.90;14.30;101360.00;;;;5069785;28;20268;-68
2022/07/01 01:18:21;;;;;;;2.60;2.50;;;13.90;99.90;14.30;101357.00;;;;5069747;28;20182;-68
2022/07/01 01:21:05;;;;;;;2.30;2.30;;;13.80;99.90;14.30;101347.00;;;;5070381;28;20253;-68
2022/07/01 01:23:51;;;;;;;2.20;2.20;;;13.80;99.90;14.30;101364.00;;;;5069561;28;20176;-67
2022/07/01 01:26:40;;;;;;;2.13;2.13;;;13.80;99.90;14.20;101377.00;;;;5069722;28;20165;-68
2022/07/01 01:29:31;;;;;;;2.97;2.87;;;13.70;99.90;14.20;101383.00;;;;5069505;28;20216;-68
2022/07/01 01:32:25;;;;;;;2.17;2.17;;;13.60;99.90;14.10;101374.00;;;;5069291;28;20726;-68
2022/07/01 01:35:13;;;;;;;2.00;2.00;;;13.60;99.90;14.00;101376.00;;;;5069800;28;20222;-68
2022/07/01 01:38:03;;;;;;;2.10;2.10;;;13.60;99.90;13.90;101383.00;;;;5053933;28;20175;-68
2022/07/01 01:40:48;;;;;;;2.00;2.00;;;13.50;99.90;13.70;101385.00;;;;5069775;28;20184;-68
2022/07/01 01:43:40;;;;;;;1.90;1.90;;;13.40;99.90;13.70;101390.00;;;;5069114;28;20550;-67
2022/07/01 01:46:28;;;;;;;2.20;2.20;;;13.40;99.90;13.80;101357.00;;;;5069241;28;20215;-68
2022/07/01 01:49:20;;;;;;;2.10;2.10;;;13.40;99.90;13.80;101401.00;;;;5068898;28;20215;-68
2022/07/01 01:52:06;;;;;;;2.20;2.20;;;13.40;99.90;13.90;101405.00;;;;5069173;28;20294;-68
2022/07/01 01:55:11;;;;;;;2.10;2.10;;;13.40;99.90;14.20;101411.00;;;;5069195;28;20233;-67
2022/07/01 01:58:12;;;;;;;2.30;2.30;;;13.60;99.90;14.30;101404.00;;;;5068879;28;20253;-68
2022/07/01 02:00:55;;;;;;;2.40;2.40;;;13.70;99.90;14.00;101399.00;;;;5069077;28;20180;-68
2022/07/01 02:03:41;;;;;;;2.10;2.10;;;13.60;99.90;14.10;101382.00;;;;5069322;28;20274;-68
2022/07/01 02:06:27;;;;;;;2.20;2.20;;;13.50;99.90;13.70;101391.00;;;;5068630;28;20185;-68
2022/07/01 02:09:13;;;;;;;2.10;2.10;;;13.40;99.90;13.50;101406.00;;;;5068661;28;20175;-67
2022/07/01 02:11:59;;;;;;;2.00;2.00;;;13.30;99.90;13.60;101409.00;;;;5068999;28;20211;-68
2022/07/01 02:14:44;;;;;;;2.03;2.03;;;13.30;99.90;13.80;101414.00;;;;5068685;28;20189;-68
2022/07/01 02:17:45;;;;;;;2.40;2.37;;;13.30;99.90;13.60;101417.00;;;;5069364;28;20270;-67
2022/07/01 02:20:31;;;;;;;1.80;1.80;;;13.30;99.90;13.80;101403.00;;;;5068577;28;20177;-68
2022/07/01 02:23:17;;;;;;;2.70;2.60;;;13.30;99.90;13.80;101401.00;;;;5068593;28;20187;-67
2022/07/01 02:26:06;;;;;;;2.00;2.00;;;13.30;99.90;13.60;101396.00;;;;5068757;28;20185;-68
2022/07/01 02:28:52;;;;;;;1.90;1.90;;;13.30;99.90;13.40;101393.00;;;;5068810;28;20261;-68
2022/07/01 02:31:53;;;;;;;2.17;2.13;;;13.20;99.90;13.50;101391.00;;;;5068719;28;20753;-67
2022/07/01 02:34:55;;;;;;;3.27;3.17;;;13.20;99.90;13.70;101357.00;;;;5068699;28;20175;-68
2022/07/01 02:37:46;;;;;;;2.20;2.20;;;13.20;99.90;13.60;101392.00;;;;5068362;28;20622;-68
2022/07/01 02:44:45;;;;;;;2.10;2.10;;;13.20;99.90;13.80;101399.00;;;;5011177;28;20203;-68
2022/07/01 02:47:33;;;;;;;2.10;2.10;;;13.30;99.90;13.60;101404.00;;;;5011343;28;20235;-68
2022/07/01 02:50:20;;;;;;;2.00;2.00;;;13.20;99.90;14.00;101402.00;;;;5011858;28;20172;-67
2022/07/01 02:53:09;;;;;;;2.00;2.00;;;13.30;99.90;13.90;101400.00;;;;5010866;28;20733;-68
2022/07/01 02:55:57;;;;;;;2.10;2.10;;;13.30;99.90;13.50;101390.00;;;;5011035;28;20185;-68
2022/07/01 02:58:43;;;;;;;2.10;2.10;;;13.20;99.90;13.70;101398.00;;;;5011388;28;20201;-68
2022/07/01 03:01:46;;;;;;;2.07;2.07;;;13.40;99.90;14.00;101394.00;;;;5011070;28;20248;-68
2022/07/01 03:04:30;;;;;;;2.10;2.10;;;13.40;99.90;14.20;101399.00;;;;5039336;28;20174;-68
2022/07/01 03:07:14;;;;;;;2.40;2.40;;;13.50;99.90;13.90;101403.00;;;;5051742;28;20218;-68
2022/07/01 03:09:58;;;;;;;2.60;2.50;;;13.50;99.90;14.10;101411.00;;;;5068321;28;20236;-68
2022/07/01 03:12:38;;;;;;;2.80;2.70;;;13.50;99.90;14.00;101378.00;;;;5051800;28;20213;-68
2022/07/01 03:15:22;;;;;;;2.70;2.60;;;13.40;99.90;13.90;101386.00;;;;5051834;28;20256;-68
2022/07/01 03:18:23;;;;;;;2.30;2.30;;;13.40;99.90;13.90;101422.00;;;;5068700;28;20190;-67
2022/07/01 03:21:09;;;;;;;2.43;2.40;;;13.30;99.90;14.20;101426.00;;;;5055508;28;20207;-68
2022/07/01 03:23:55;;;;;;;3.23;3.13;;;13.40;99.90;13.90;101396.00;;;;5055312;28;20299;-67
2022/07/01 03:26:42;;;;;;;2.30;2.30;;;13.40;99.90;14.20;101428.00;;;;5056401;28;20207;-68
2022/07/01 03:29:34;;;;;;;2.60;2.50;;;13.40;99.90;14.10;101427.00;;;;5055215;28;20193;-68
2022/07/01 03:32:09;;;;;;;3.10;3.00;;;13.40;99.90;13.90;101422.00;;;;5055045;28;20675;-68
2022/07/01 03:34:54;;;;;;;3.00;2.90;;;13.40;99.90;13.40;101430.00;;;;5042311;28;20198;-68
2022/07/01 03:37:37;;;;;;;2.77;2.67;;;13.20;99.90;13.50;101430.00;;;;5018633;28;20252;-68
2022/07/01 03:40:23;;;;;;;2.70;2.60;;;13.10;99.90;13.50;101429.00;;;;5036347;28;20267;-68
2022/07/01 03:43:14;;;;;;;2.70;2.60;;;13.10;99.90;13.60;101407.00;;;;5035337;28;20173;-68
2022/07/01 03:46:00;;;;;;;2.63;2.53;;;13.10;99.90;13.30;101432.00;;;;5035228;28;20256;-68
2022/07/01 03:49:01;;;;;;;2.30;2.30;;;13.10;99.90;13.30;101432.00;;;;5034892;28;20173;-68
2022/07/01 03:52:03;;;;;;;2.40;2.40;;;13.00;99.90;13.40;101435.00;;;;5034913;28;20195;-68
2022/07/01 03:55:04;;;;;;;2.40;2.40;;;13.00;99.90;13.40;101432.00;;;;5035913;28;20313;-68
2022/07/01 03:58:05;;;;;;;3.10;3.00;;;13.00;99.90;13.50;101439.00;;;;5034642;28;20272;-68
2022/07/01 04:00:54;;;;;;;2.00;2.00;;;13.00;99.90;13.80;101445.00;;;;5034591;28;20176;-67
2022/07/01 04:03:55;;;;;;;2.60;2.50;;;13.10;99.90;13.50;101459.00;;;;5034382;28;20191;-65
2022/07/01 04:06:42;;;;;;;3.13;3.03;;;13.00;99.90;13.70;101455.00;;;;5034396;28;20228;-67
2022/07/01 04:09:28;;;;;;;2.50;2.40;;;13.10;99.90;13.70;101447.00;;;;5035852;28;20176;-67
2022/07/01 04:12:31;;;;;;;2.40;2.40;;;13.20;99.90;13.60;101463.00;;;;5034594;28;20201;-67
2022/07/01 04:15:00;;;;;;;2.77;2.67;;;13.10;99.90;13.50;101468.00;;;;5034437;28;20207;-66
2022/07/01 04:17:43;;;;;;;2.30;2.30;;;13.10;99.90;13.70;101474.00;;;;5035750;28;20205;-67
2022/07/01 04:20:37;;;;;;;2.53;2.47;;;13.10;99.90;13.80;101460.00;;;;5034402;28;20321;-67
2022/07/01 04:23:21;;;;;;;2.30;2.30;;;13.20;99.90;13.80;101462.00;;;;5034171;28;20194;-67
2022/07/01 04:26:25;;;;;;;2.20;2.20;;;13.30;99.90;13.90;101487.00;;;;5034404;28;20177;-67
2022/07/01 04:29:14;;;;;;;2.20;2.20;;;13.30;99.90;13.60;101485.00;;;;5019124;28;20183;-67
2022/07/01 04:32:01;;;;;;;2.30;2.30;;;13.20;99.90;13.60;101486.00;;;;5033795;28;20213;-67
2022/07/01 04:34:46;;;;;;;3.00;2.90;;;13.20;99.90;13.80;101462.00;;;;5034312;28;20178;-67
2022/07/01 04:37:30;;;;;;;2.00;2.00;;;13.30;99.90;13.90;101490.00;;;;5035092;28;20274;-67
2022/07/01 04:40:13;;;;;;;2.20;2.20;;;13.50;99.90;14.20;101481.00;;;;5034986;28;20586;-67
2022/07/01 04:43:14;;;;;;;2.17;2.17;;;13.70;99.90;14.30;101482.00;;;;5035305;28;20199;-66
2022/07/01 04:45:59;;;;;;;1.70;1.70;;;13.90;99.90;14.40;101489.00;;;;5033794;28;20328;-66
2022/07/01 04:48:43;;;;;;;2.90;2.80;;;13.90;99.90;14.20;101490.00;;;;5034662;28;20185;-67
2022/07/01 04:51:47;;;;;;;1.60;1.60;;;13.80;99.90;14.80;101493.00;;;;5033847;28;20313;-67
2022/07/01 04:54:32;;;;;;;1.80;1.80;;;14.10;99.90;14.60;101483.00;;;;5018746;28;20596;-67
2022/07/01 04:57:23;;;;;;;1.30;1.30;;;14.00;99.90;14.90;101484.00;;;;5049934;28;20522;-66
2022/07/01 05:00:13;;;;;;;1.20;1.20;;;14.10;99.90;15.40;101468.00;;;;5034922;28;20181;-67
2022/07/01 05:02:59;;;;;;;1.20;1.20;;;14.50;99.90;16.10;101479.00;;;;5033075;28;20329;-67
2022/07/01 05:06:00;;;;;;;1.30;1.30;;;15.10;99.90;16.80;101484.00;;;;5033775;28;20637;-67
2022/07/01 05:08:56;;;;;;;0.40;0.40;;;15.90;99.90;17.30;101475.00;;;;5034522;28;20179;-67
2022/07/01 05:11:57;;;;;;;3.97;2.67;;;16.60;99.90;17.70;101478.00;;;;5033414;28;20223;-67
2022/07/01 05:15:00;;;;;;;0.70;0.70;;;17.00;99.90;17.00;101475.00;;;;5033611;28;20181;-67
2022/07/01 05:24:36;;;;;;;0.10;0.10;;;18.00;99.90;17.80;101425.00;;;;5023115;28;20194;-67
2022/07/01 05:27:22;;;;;;;0.20;0.20;;;17.90;99.90;19.60;101467.00;;;;5034401;28;20202;-67
2022/07/01 05:30:07;;;;;;;0.20;0.20;;;18.60;99.90;16.60;101449.00;;;;5033044;28;20175;-67
2022/07/01 05:32:59;;;;;;;0.30;0.30;;;17.40;99.90;16.40;101472.00;;;;5032949;28;20217;-67
2022/07/01 05:36:05;;;;;;;0.20;0.20;;;16.40;99.90;16.10;101455.00;;;;5034287;28;20258;-67
2022/07/01 05:39:09;;;;;;;0.20;0.20;;;16.00;99.90;16.00;101474.00;;;;5032647;28;20205;-67
2022/07/01 05:42:10;;;;;;;0.30;0.30;;;15.90;99.90;16.70;101480.00;;;;5032431;28;20711;-67
2022/07/01 05:45:13;;;;;;;0.22;0.22;;;16.20;99.90;15.90;101468.00;;;;5032374;28;20601;-66
2022/07/01 05:48:14;;;;;;;0.10;0.10;;;16.00;99.90;16.90;101466.00;;;;5049207;28;20190;-67
2022/07/01 05:51:24;;;;;;;0.20;0.20;;;16.20;99.90;19.50;101470.00;;;;5032561;28;20179;-67
2022/07/01 05:54:15;;;;;;;0.32;0.32;;;18.00;99.90;21.30;101449.00;;;;5033536;28;20186;-67
2022/07/01 05:57:20;;;;;;;0.20;0.20;;;19.70;99.90;21.00;101450.00;;;;5032848;28;20253;-67
2022/07/01 06:00:13;;;;;;;0.55;0.55;;;20.70;99.90;19.20;101465.00;;;;5032887;28;20212;-67
2022/07/01 06:03:16;;;;;;;0.20;0.20;;;19.70;99.90;18.80;101462.00;;;;5032575;28;20232;-67
2022/07/01 06:06:07;;;;;;;0.10;0.10;;;18.30;99.90;19.40;101472.00;;;;5032381;28;20244;-67
2022/07/01 06:09:15;;;;;;;0.30;0.30;;;18.70;99.90;19.00;101477.00;;;;5032561;28;20614;-67
2022/07/01 06:12:16;;;;;;;1.13;0.82;;;19.30;99.90;18.90;101459.00;;;;5048459;28;20681;-67
2022/07/01 06:15:18;;;;;;;0.20;0.20;;;18.20;99.90;20.80;101507.00;;;;5032270;28;20226;-67
2022/07/01 06:18:24;;;;;;;0.10;0.10;;;20.50;99.90;20.40;101466.00;;;;5032348;28;20182;-67
2022/07/01 06:21:18;;;;;;;0.63;0.63;;;20.00;99.90;24.90;101557.00;;;;5032080;28;20193;-68
2022/07/01 06:24:16;;;;;;;1.73;0.95;;;22.20;99.90;24.20;101588.00;;;;5032132;28;20290;-67
2022/07/01 06:27:07;;;;;;;0.47;0.47;;;23.10;99.90;20.20;101500.00;;;;5032363;28;20588;-67
2022/07/01 06:29:56;;;;;;;0.10;0.10;;;20.90;99.90;23.70;101559.00;;;;5031828;28;20270;-67
2022/07/01 06:32:42;;;;;;;0.35;0.30;;;21.70;99.90;23.90;101596.00;;;;5033094;28;20285;-68
2022/07/01 06:35:33;;;;;;;0.17;0.17;;;22.40;99.90;20.90;101543.00;;;;5017660;28;20198;-67
2022/07/01 06:38:34;;;;;;;0.10;0.10;;;21.80;99.90;22.30;101597.00;;;;5031928;28;20195;-67
2022/07/01 06:41:26;;;;;;;0.35;0.35;;;22.40;99.90;25.50;101609.00;;;;5032051;28;20174;-67
2022/07/01 06:44:44;;;;;;;0.75;0.73;;;23.40;99.90;23.00;101632.00;;;;5032007;28;20241;-67
2022/07/01 06:47:30;;;;;;;0.30;0.30;;;23.80;99.90;25.70;101643.00;;;;5033016;28;20198;-68
2022/07/01 06:50:21;;;;;;;0.10;0.10;;;24.10;99.90;19.80;101574.00;;;;5031952;28;20317;-67
2022/07/01 06:53:27;;;;;;;0.10;0.10;;;21.40;99.90;20.90;101521.00;;;;5031936;28;20217;-67
2022/07/01 06:56:28;;;;;;;0.10;0.10;;;20.20;99.90;20.60;101534.00;;;;5037261;28;20178;-67
2022/07/01 06:59:34;;;;;;;5.28;0.43;;;20.50;99.90;24.90;101609.00;;;;5035653;28;20183;-67
2022/07/01 07:02:35;;;;;;;0.35;0.35;;;22.40;99.90;21.50;101574.00;;;;5037193;28;20218;-67
2022/07/01 07:05:36;;;;;;;0.30;0.30;;;21.50;99.90;22.40;101621.00;;;;5035586;28;20178;-68
2022/07/01 07:08:55;;;;;;;0.52;0.52;;;22.20;99.90;19.30;101531.00;;;;5035660;28;20233;-67
2022/07/01 07:11:46;;;;;;;0.40;0.40;;;19.90;99.90;20.70;101524.00;;;;5034496;28;20812;-67
2022/07/01 07:14:40;;;;;;;0.77;0.77;;;19.80;99.90;20.30;101547.00;;;;5035851;28;20587;-67
2022/07/01 07:17:29;;;;;;;0.20;0.20;;;20.00;99.90;21.50;101570.00;;;;5036508;28;20177;-67
2022/07/01 07:20:34;;;;;;;0.40;0.40;;;20.70;99.90;19.00;101563.00;;;;5036692;28;20227;-67
2022/07/01 07:23:19;;;;;;;0.20;0.20;;;20.20;99.90;20.70;101560.00;;;;5035178;28;20277;-67
2022/07/01 07:26:08;;;;;;;0.10;0.10;;;19.80;99.90;20.50;101576.00;;;;5036428;28;20668;-67
2022/07/01 07:29:19;;;;;;;1.02;1.02;;;20.10;99.90;17.80;101518.00;;;;5035340;28;20175;-67
2022/07/01 07:32:06;;;;;;;0.40;0.40;;;18.70;99.90;17.70;101527.00;;;;5023356;28;20210;-68
2022/07/01 07:35:10;;;;;;;0.10;0.10;;;18.00;99.90;20.70;101509.00;;;;5052052;28;20257;-68
2022/07/01 07:38:11;;;;;;;1.08;0.45;;;19.20;99.90;20.60;101585.00;;;;5022527;28;20182;-68
2022/07/01 07:41:12;;;;;;;0.20;0.20;;;20.10;99.90;22.40;101596.00;;;;5036062;28;20165;-68
2022/07/01 07:44:13;;;;;;;0.20;0.20;;;21.60;99.90;20.50;101629.00;;;;5035235;28;20178;-68
2022/07/01 07:47:06;;;;;;;0.30;0.30;;;21.30;99.90;19.80;101602.00;;;;5034942;28;20713;-68
2022/07/01 07:49:52;;;;;;;0.30;0.30;;;20.00;99.90;20.50;101593.00;;;;5033953;28;20441;-68
2022/07/01 07:52:36;;;;;;;0.63;0.57;;;20.10;99.90;18.90;101615.00;;;;5036049;28;20214;-68
2022/07/01 07:55:30;;;;;;;0.20;0.20;;;19.70;99.90;19.20;101571.00;;;;5034476;28;20237;-67
2022/07/01 07:58:31;;;;;;;0.10;0.10;;;19.30;99.90;21.40;101606.00;;;;5051539;28;20183;-68
2022/07/01 08:01:34;;;;;;;0.10;0.10;;;19.70;99.90;22.70;101635.00;;;;5034858;28;20221;-68
2022/07/01 08:04:20;;;;;;;0.10;0.10;;;20.70;99.90;20.50;101618.00;;;;5034230;28;20178;-68
2022/07/01 08:07:21;;;;;;;1.95;0.80;;;20.30;99.90;18.90;101601.00;;;;5020108;28;20186;-68
2022/07/01 08:10:09;;;;;;;0.10;0.10;;;19.50;99.90;22.30;101647.00;;;;5051171;28;20186;-68
2022/07/01 08:13:34;;;;;;;0.20;0.20;;;20.80;99.90;20.50;101641.00;;;;5034615;28;20194;-68
2022/07/01 08:16:49;;;;;;;0.10;0.10;;;20.50;99.90;21.80;101656.00;;;;5035485;28;20249;-68
2022/07/01 08:19:52;;;;;;;0.10;0.10;;;20.80;99.90;21.70;101649.00;;;;5023166;28;20293;-68
2022/07/01 08:22:58;;;;;;;0.47;0.47;;;20.20;99.90;20.10;101670.00;;;;5019425;28;20193;-68
2022/07/01 08:25:59;;;;;;;2.10;0.45;;;20.90;99.90;19.20;101627.00;;;;5034074;28;20292;-68
2022/07/01 08:28:45;;;;;;;1.95;0.70;;;19.30;99.90;20.20;101677.00;;;;5034311;28;20180;-68
2022/07/01 08:31:47;;;;;;;1.52;1.00;;;20.00;99.90;21.20;101693.00;;;;5017632;28;20202;-68
2022/07/01 08:34:48;;;;;;;3.10;1.20;;;20.40;99.90;19.00;101655.00;;;;5034465;28;20174;-68
2022/07/01 08:37:35;;;;;;;0.40;0.40;;;19.00;99.90;18.90;101612.00;;;;5035039;28;20208;-68
2022/07/01 08:40:39;;;;;;;0.20;0.20;;;18.60;99.90;18.60;101588.00;;;;5035231;28;20205;-67
2022/07/01 08:43:41;;;;;;;0.10;0.10;;;18.20;99.90;20.50;101656.00;;;;5033960;28;20316;-68
2022/07/01 08:46:28;;;;;;;0.10;0.10;;;19.40;99.90;21.80;101677.00;;;;5033656;28;20770;-68
2022/07/01 08:49:32;;;;;;;0.10;0.10;;;20.40;99.90;21.00;101680.00;;;;5034022;28;20183;-68
2022/07/01 08:52:36;;;;;;;0.10;0.10;;;20.40;99.90;20.00;101661.00;;;;5018793;28;20217;-68
2022/07/01 08:55:28;;;;;;;0.20;0.20;;;19.70;99.90;19.10;101638.00;;;;5033552;28;20190;-68
2022/07/01 08:58:29;;;;;;;0.77;0.77;;;18.90;99.90;18.80;101637.00;;;;5033613;28;20189;-68
2022/07/01 09:01:39;;;;;;;0.10;0.10;;;18.60;99.90;20.50;101658.00;;;;5033714;28;20192;-67
2022/07/01 09:04:42;;;;;;;0.10;0.10;;;19.00;99.90;21.60;101702.00;;;;5022745;28;20669;-69
2022/07/01 09:07:37;;;;;;;0.10;0.10;;;20.70;99.90;21.50;101707.00;;;;5033518;28;20183;-68
2022/07/01 09:10:56;;;;;;;0.10;0.10;;;20.80;99.90;23.70;101736.00;;;;5034650;28;20207;-68
2022/07/01 09:14:08;;;;;;;0.17;0.17;;;21.80;99.90;22.60;101734.00;;;;5033954;28;20241;-68
2022/07/01 09:16:58;;;;;;;0.40;0.40;;;21.90;99.90;23.60;101747.00;;;;5021443;28;20242;-68
2022/07/01 09:19:59;;;;;;;0.38;0.32;;;22.40;99.90;22.70;101740.00;;;;5034305;28;20688;-68
2022/07/01 09:23:00;;;;;;;0.10;0.10;;;22.10;99.90;23.90;101745.00;;;;5033026;28;20278;-68
2022/07/01 09:26:22;;;;;;;0.10;0.10;;;22.40;99.90;24.20;101755.00;;;;5033309;28;20212;-68
2022/07/01 09:29:37;;;;;;;0.10;0.10;;;22.90;99.90;27.40;101759.00;;;;5031934;28;20217;-68
2022/07/01 09:32:39;;;;;;;0.10;0.10;;;25.50;99.90;22.40;101748.00;;;;5033221;28;20222;-67
2022/07/01 09:35:59;;;;;;;0.10;0.10;;;22.80;99.90;24.20;101744.00;;;;5033354;28;20186;-67
2022/07/01 09:39:03;;;;;;;0.50;0.50;;;22.40;99.90;22.20;101747.00;;;;5033676;28;20182;-67
2022/07/01 09:42:05;;;;;;;2.20;0.57;;;22.30;99.90;21.30;101741.00;;;;5034238;28;20181;-67
2022/07/01 09:45:10;;;;;;;0.10;0.10;;;21.50;99.90;23.60;101753.00;;;;5032914;28;20175;-67
2022/07/01 09:48:01;;;;;;;0.30;0.30;;;21.90;99.90;22.10;101761.00;;;;5017651;28;20228;-67
2022/07/01 09:50:49;;;;;;;0.10;0.10;;;22.30;99.90;22.40;101763.00;;;;5048849;28;20194;-67
2022/07/01 09:53:39;;;;;;;0.10;0.10;;;21.40;99.90;21.90;101748.00;;;;5032012;28;20232;-67
2022/07/01 09:56:30;;;;;;;0.10;0.10;;;21.20;99.90;21.00;101710.00;;;;5033017;28;20187;-67
2022/07/01 09:59:17;;;;;;;0.10;0.10;;;20.80;99.90;21.60;101736.00;;;;5032375;28;20178;-67
2022/07/01 10:02:12;;;;;;;0.10;0.10;;;20.70;99.90;23.60;101740.00;;;;5017760;28;20194;-67
2022/07/01 10:05:09;;;;;;;0.10;0.10;;;22.30;99.90;24.00;101767.00;;;;5032776;28;20251;-67
2022/07/01 10:07:58;;;;;;;0.28;0.28;;;22.60;99.90;23.90;101771.00;;;;5032346;28;20622;-67
2022/07/01 10:10:48;;;;;;;0.10;0.10;;;23.10;99.90;25.70;101776.00;;;;5033635;28;20184;-67
2022/07/01 10:13:34;;;;;;;1.40;0.20;;;24.10;99.90;23.10;101754.00;;;;5032110;28;20245;-67
2022/07/01 10:16:55;;;;;;;0.10;0.10;;;23.50;99.90;21.70;101772.00;;;;5032588;28;20265;-67
2022/07/01 10:19:39;;;;;;;0.10;0.10;;;22.00;99.90;22.60;101771.00;;;;5032002;28;20536;-67
2022/07/01 10:33:41;;;;;;;0.22;0.22;;;19.50;99.90;20.10;101712.00;;;;5097296;27;1776273;-68
2022/07/01 10:36:32;;;;;;;0.10;0.10;;;19.70;99.90;21.70;101743.00;;;;5130496;28;20183;-68
2022/07/01 10:39:09;;;;;;;0.20;0.20;;;20.40;99.90;24.00;101782.00;;;;5113067;28;20525;-68
2022/07/01 10:42:15;;;;;;;0.20;0.20;;;22.40;99.90;24.90;101806.00;;;;5130503;28;20634;-68
2022/07/01 10:45:23;;;;;;;0.15;0.15;;;23.30;99.90;23.80;101806.00;;;;5130139;28;20186;-68
2022/07/01 10:48:21;;;;;;;0.65;0.30;;;24.00;99.90;21.80;101796.00;;;;5130163;28;20175;-68
2022/07/01 10:51:18;;;;;;;0.30;0.30;;;22.70;99.90;23.70;101792.00;;;;5116062;28;20179;-67
2022/07/01 10:54:07;;;;;;;0.20;0.20;;;22.80;99.90;22.10;101776.00;;;;5120301;28;20195;-67
2022/07/01 10:57:18;;;;;;;0.10;0.10;;;22.30;99.90;23.30;101794.00;;;;5113087;28;20172;-67
2022/07/01 11:00:03;;;;;;;0.10;0.10;;;22.10;99.90;22.60;101783.00;;;;5130119;28;20221;-67
2022/07/01 11:02:40;;;;;;;0.30;0.30;;;22.20;99.90;23.00;101785.00;;;;5130828;28;20191;-68
2022/07/01 11:05:50;;;;;;;0.30;0.30;;;22.20;99.90;22.50;101795.00;;;;5129242;28;20652;-67
2022/07/01 11:08:38;;;;;;;0.10;0.10;;;22.30;99.90;22.70;101773.00;;;;5131297;27;20176;-67
2022/07/01 11:11:42;;;;;;;0.10;0.10;;;22.10;99.90;22.30;101797.00;;;;5114636;28;20199;-68
2022/07/01 11:14:28;;;;;;;0.25;0.25;;;21.90;99.90;22.80;101803.00;;;;5112880;28;20634;-67
2022/07/01 11:17:12;;;;;;;0.20;0.20;;;21.80;99.90;22.10;101793.00;;;;5129724;28;20183;-67
2022/07/01 11:19:52;;;;;;;0.13;0.13;;;21.50;99.90;21.80;101765.00;;;;5129655;28;20186;-67
2022/07/01 11:22:56;;;;;;;0.10;0.10;;;21.30;99.90;21.70;101796.00;;;;5112535;28;20228;-67
2022/07/01 11:25:42;;;;;;;0.10;0.10;;;20.80;99.90;22.90;101808.00;;;;5113898;28;20181;-67
2022/07/01 11:28:26;;;;;;;0.10;0.10;;;21.50;99.90;21.40;101805.00;;;;5129831;28;20179;-67
2022/07/01 11:31:32;;;;;;;0.10;0.10;;;21.00;99.90;21.90;101808.00;;;;5128501;28;20219;-68
2022/07/01 11:34:17;;;;;;;0.15;0.15;;;21.10;99.90;23.20;101810.00;;;;5129513;28;20194;-67
2022/07/01 11:40:08;;;;;;;0.45;0.32;;;23.50;99.90;25.20;101823.00;;;;5129528;28;20186;-68
2022/07/01 11:42:52;;;;;;;0.88;0.43;;;25.30;99.90;23.40;101811.00;;;;5127066;28;20531;-68
2022/07/01 11:46:08;;;;;;;0.10;0.10;;;24.50;99.90;24.20;101805.00;;;;5115280;28;20172;-68
2022/07/01 11:48:53;;;;;;;0.10;0.10;;;23.60;99.90;23.10;101804.00;;;;5109292;28;20191;-68
2022/07/01 11:51:55;;;;;;;0.10;0.10;;;23.50;99.90;23.70;101787.00;;;;5114979;28;20229;-68
2022/07/01 11:54:43;;;;;;;0.10;0.10;;;23.60;99.90;23.50;101806.00;;;;5101539;28;20653;-68
2022/07/01 11:57:32;;;;;;;0.10;0.10;;;23.20;99.90;25.50;101778.00;;;;5098071;28;20173;-68
2022/07/01 12:00:18;;;;;;;0.10;0.10;;;24.10;99.90;24.30;101806.00;;;;5116781;28;20172;-68
2022/07/01 12:03:06;;;;;;;0.20;0.20;;;23.80;99.90;24.00;101820.00;;;;5099646;28;20233;-68
2022/07/01 12:05:53;;;;;;;0.10;0.10;;;23.10;99.90;24.10;101823.00;;;;5115583;28;20167;-68
2022/07/01 12:08:56;;;;;;;0.10;0.10;;;23.10;99.90;24.50;101816.00;;;;5115228;28;20529;-68
2022/07/01 12:11:46;;;;;;;0.30;0.30;;;23.00;99.90;23.30;101811.00;;;;5114885;28;20578;-68
2022/07/01 12:14:35;;;;;;;2.60;0.20;;;23.10;99.90;23.00;101811.00;;;;5097877;28;20176;-68
2022/07/01 12:17:22;;;;;;;0.10;0.10;;;22.60;99.90;23.30;101809.00;;;;5097704;28;20176;-68
2022/07/01 12:20:31;;;;;;;1.05;1.05;;;22.60;99.90;21.90;101810.00;;;;5114973;28;20266;-68
2022/07/01 12:23:26;;;;;;;0.20;0.20;;;21.80;99.90;22.00;101800.00;;;;5098287;28;20538;-68
2022/07/01 12:26:12;;;;;;;0.10;0.10;;;21.50;99.90;21.80;101809.00;;;;5106021;28;20195;-68
2022/07/01 12:28:55;;;;;;;0.10;0.10;;;21.20;99.90;23.00;101819.00;;;;5114818;28;20515;-68
2022/07/01 12:31:42;;;;;;;0.20;0.20;;;21.60;99.90;21.60;101807.00;;;;5114222;28;20211;-68
2022/07/01 12:34:42;;;;;;;0.10;0.10;;;21.20;99.90;21.40;101795.00;;;;5114737;28;20268;-68
2022/07/01 12:37:26;;;;;;;0.10;0.10;;;20.70;99.90;21.50;101797.00;;;;5097195;28;20183;-68
2022/07/01 12:40:23;;;;;;;0.73;0.73;;;20.70;99.90;21.00;101783.00;;;;5115160;28;20251;-68
2022/07/01 12:43:29;;;;;;;0.43;0.40;;;20.40;99.90;20.00;101724.00;;;;5114713;28;20259;-68
2022/07/01 12:46:26;;;;;;;0.30;0.30;;;19.80;99.90;19.70;101718.00;;;;5097438;28;20172;-68
2022/07/01 12:49:25;;;;;;;0.30;0.30;;;19.30;99.90;19.40;101707.00;;;;5114153;28;20261;-68
2022/07/01 12:52:27;;;;;;;0.30;0.30;;;19.10;99.90;19.40;101690.00;;;;5097264;28;20269;-68
2022/07/01 12:55:20;;;;;;;0.30;0.30;;;18.90;99.90;19.30;101697.00;;;;5113288;28;20558;-68
2022/07/01 12:58:11;;;;;;;0.30;0.30;;;18.80;99.90;19.30;101670.00;;;;5097251;28;20256;-68
2022/07/01 13:01:00;;;;;;;0.90;0.90;;;18.80;99.90;18.80;101708.00;;;;5114193;28;20180;-68
2022/07/01 13:04:06;;;;;;;0.60;0.60;;;18.60;99.90;18.10;101700.00;;;;5113864;28;20191;-67
2022/07/01 13:07:10;;;;;;;0.67;0.67;;;18.20;99.90;18.20;101690.00;;;;5101259;28;20185;-68
2022/07/01 13:10:36;;;;;;;0.40;0.40;;;18.00;99.90;18.30;101702.00;;;;5084458;28;20189;-68